Terminal Aerodrome Forecast
Issued by NWS

Home | Current Version | Previous Version | Text Only | Print | Product List | Glossary On
Versions: 1 2 3 4 5 6 7 8 9 10 11 12 13 14
000
FTUS43 KSGF 041727
TAFJLN
TAF
KJLN 041727Z 0418/0518 21012KT P6SM BKN100
     FM042000 23009KT P6SM VCSH BKN050
     FM050300 13005KT P6SM OVC100 PROB30 0503/0509 P6SM TSRA
      BKN050CB
     FM051200 10003KT P6SM OVC050 PROB30 0512/0518 P6SM TSRA
      BKN050CB=

USA.gov is the U.S. government's official web portal to all federal, state and local government web resources and services.